sensor_id;sensor_type;location;lat;lon;timestamp;temperature;humidity
25991;DHT22;13779;-33.886;151.198;2024-03-07T00:00:48;24.80;99.90
25991;DHT22;13779;-33.886;151.198;2024-03-07T00:03:19;24.80;99.90
25991;DHT22;13779;-33.886;151.198;2024-03-07T00:05:49;24.80;99.90
25991;DHT22;13779;-33.886;151.198;2024-03-07T00:08:18;24.80;99.90
25991;DHT22;13779;-33.886;151.198;2024-03-07T00:10:48;24.80;99.90
25991;DHT22;13779;-33.886;151.198;2024-03-07T00:13:18;24.90;99.90
25991;DHT22;13779;-33.886;151.198;2024-03-07T00:15:47;24.90;99.90
25991;DHT22;13779;-33.886;151.198;2024-03-07T00:18:17;24.80;99.90
25991;DHT22;13779;-33.886;151.198;2024-03-07T00:20:47;24.80;99.90
25991;DHT22;13779;-33.886;151.198;2024-03-07T00:23:16;24.80;99.90
25991;DHT22;13779;-33.886;151.198;2024-03-07T00:25:46;24.80;99.90
25991;DHT22;13779;-33.886;151.198;2024-03-07T00:28:18;24.90;99.90
25991;DHT22;13779;-33.886;151.198;2024-03-07T00:30:48;25.10;99.90
25991;DHT22;13779;-33.886;151.198;2024-03-07T00:33:18;25.10;99.90
25991;DHT22;13779;-33.886;151.198;2024-03-07T00:35:50;25.30;99.90
25991;DHT22;13779;-33.886;151.198;2024-03-07T00:38:20;25.30;99.90
25991;DHT22;13779;-33.886;151.198;2024-03-07T00:40:49;25.30;99.90
25991;DHT22;13779;-33.886;151.198;2024-03-07T00:43:19;25.30;99.90
25991;DHT22;13779;-33.886;151.198;2024-03-07T00:45:49;25.30;99.90
25991;DHT22;13779;-33.886;151.198;2024-03-07T00:48:19;25.20;99.90
25991;DHT22;13779;-33.886;151.198;2024-03-07T00:50:48;25.20;99.90
25991;DHT22;13779;-33.886;151.198;2024-03-07T00:53:18;25.20;99.90
25991;DHT22;13779;-33.886;151.198;2024-03-07T00:55:47;25.30;99.90
25991;DHT22;13779;-33.886;151.198;2024-03-07T00:58:17;25.50;99.90
25991;DHT22;13779;-33.886;151.198;2024-03-07T01:00:47;25.40;99.90
25991;DHT22;13779;-33.886;151.198;2024-03-07T01:03:16;25.50;99.90
25991;DHT22;13779;-33.886;151.198;2024-03-07T01:05:46;25.50;99.90
25991;DHT22;13779;-33.886;151.198;2024-03-07T01:08:16;25.50;99.90
25991;DHT22;13779;-33.886;151.198;2024-03-07T01:10:45;25.50;99.90
25991;DHT22;13779;-33.886;151.198;2024-03-07T01:13:15;25.50;99.90
25991;DHT22;13779;-33.886;151.198;2024-03-07T01:15:50;25.60;99.90
25991;DHT22;13779;-33.886;151.198;2024-03-07T01:18:21;25.70;99.90
25991;DHT22;13779;-33.886;151.198;2024-03-07T01:20:51;25.70;99.90
25991;DHT22;13779;-33.886;151.198;2024-03-07T01:23:21;25.60;99.90
25991;DHT22;13779;-33.886;151.198;2024-03-07T01:25:51;25.50;99.90
25991;DHT22;13779;-33.886;151.198;2024-03-07T01:28:20;25.40;99.90
25991;DHT22;13779;-33.886;151.198;2024-03-07T01:30:51;25.40;99.90
25991;DHT22;13779;-33.886;151.198;2024-03-07T01:33:21;25.30;99.90
25991;DHT22;13779;-33.886;151.198;2024-03-07T01:35:54;25.40;99.90
25991;DHT22;13779;-33.886;151.198;2024-03-07T01:38:24;25.50;99.90
25991;DHT22;13779;-33.886;151.198;2024-03-07T01:40:55;25.50;99.90
25991;DHT22;13779;-33.886;151.198;2024-03-07T01:43:24;25.50;99.90
25991;DHT22;13779;-33.886;151.198;2024-03-07T01:45:54;25.40;99.90
25991;DHT22;13779;-33.886;151.198;2024-03-07T01:48:28;25.40;99.90
25991;DHT22;13779;-33.886;151.198;2024-03-07T01:51:01;25.50;99.90
25991;DHT22;13779;-33.886;151.198;2024-03-07T01:53:34;25.50;99.90
25991;DHT22;13779;-33.886;151.198;2024-03-07T01:56:03;25.60;99.90
25991;DHT22;13779;-33.886;151.198;2024-03-07T01:58:33;25.70;99.90
25991;DHT22;13779;-33.886;151.198;2024-03-07T02:01:04;25.70;99.90
25991;DHT22;13779;-33.886;151.198;2024-03-07T02:03:34;25.70;99.90
25991;DHT22;13779;-33.886;151.198;2024-03-07T02:06:05;25.80;99.90
25991;DHT22;13779;-33.886;151.198;2024-03-07T02:08:34;25.80;99.90
25991;DHT22;13779;-33.886;151.198;2024-03-07T02:11:04;25.80;99.90
25991;DHT22;13779;-33.886;151.198;2024-03-07T02:13:34;25.70;99.90
25991;DHT22;13779;-33.886;151.198;2024-03-07T02:16:04;25.70;99.90
25991;DHT22;13779;-33.886;151.198;2024-03-07T02:18:34;25.60;99.90
25991;DHT22;13779;-33.886;151.198;2024-03-07T02:21:07;25.80;99.90
25991;DHT22;13779;-33.886;151.198;2024-03-07T02:23:40;25.90;99.90
25991;DHT22;13779;-33.886;151.198;2024-03-07T02:26:12;25.90;99.90
25991;DHT22;13779;-33.886;151.198;2024-03-07T02:28:42;26.00;99.90
25991;DHT22;13779;-33.886;151.198;2024-03-07T02:31:12;26.00;99.90
25991;DHT22;13779;-33.886;151.198;2024-03-07T02:33:42;26.00;99.90
25991;DHT22;13779;-33.886;151.198;2024-03-07T02:36:12;26.00;99.90
25991;DHT22;13779;-33.886;151.198;2024-03-07T02:38:41;25.90;99.90
25991;DHT22;13779;-33.886;151.198;2024-03-07T02:41:10;25.80;99.90
25991;DHT22;13779;-33.886;151.198;2024-03-07T02:43:42;25.90;99.90
25991;DHT22;13779;-33.886;151.198;2024-03-07T02:46:11;25.80;99.90
25991;DHT22;13779;-33.886;151.198;2024-03-07T02:48:41;25.90;99.90
25991;DHT22;13779;-33.886;151.198;2024-03-07T02:51:10;26.00;99.90
25991;DHT22;13779;-33.886;151.198;2024-03-07T02:53:40;26.10;99.90
25991;DHT22;13779;-33.886;151.198;2024-03-07T02:56:10;26.10;99.90
25991;DHT22;13779;-33.886;151.198;2024-03-07T02:58:40;25.90;99.90
25991;DHT22;13779;-33.886;151.198;2024-03-07T03:01:10;26.00;99.90
25991;DHT22;13779;-33.886;151.198;2024-03-07T03:03:43;26.00;99.90
25991;DHT22;13779;-33.886;151.198;2024-03-07T03:06:13;26.00;99.90
25991;DHT22;13779;-33.886;151.198;2024-03-07T03:08:44;26.00;99.90
25991;DHT22;13779;-33.886;151.198;2024-03-07T03:11:14;25.90;99.90
25991;DHT22;13779;-33.886;151.198;2024-03-07T03:13:44;26.00;99.90
25991;DHT22;13779;-33.886;151.198;2024-03-07T03:16:15;25.80;99.90
25991;DHT22;13779;-33.886;151.198;2024-03-07T03:18:53;25.70;99.90
25991;DHT22;13779;-33.886;151.198;2024-03-07T03:21:23;25.60;99.90
25991;DHT22;13779;-33.886;151.198;2024-03-07T03:23:53;25.60;99.90
25991;DHT22;13779;-33.886;151.198;2024-03-07T03:26:23;25.50;99.90
25991;DHT22;13779;-33.886;151.198;2024-03-07T03:28:54;25.50;99.90
25991;DHT22;13779;-33.886;151.198;2024-03-07T03:31:23;25.50;99.90
25991;DHT22;13779;-33.886;151.198;2024-03-07T03:33:53;25.50;99.90
25991;DHT22;13779;-33.886;151.198;2024-03-07T03:36:23;25.40;99.90
25991;DHT22;13779;-33.886;151.198;2024-03-07T03:38:53;25.50;99.90
25991;DHT22;13779;-33.886;151.198;2024-03-07T03:41:23;25.60;99.90
25991;DHT22;13779;-33.886;151.198;2024-03-07T03:43:52;25.70;99.90
25991;DHT22;13779;-33.886;151.198;2024-03-07T03:46:22;25.80;99.90
25991;DHT22;13779;-33.886;151.198;2024-03-07T03:48:52;25.90;99.90
25991;DHT22;13779;-33.886;151.198;2024-03-07T03:51:23;25.90;99.90
25991;DHT22;13779;-33.886;151.198;2024-03-07T03:53:54;25.90;99.90
25991;DHT22;13779;-33.886;151.198;2024-03-07T03:56:24;25.90;99.90
25991;DHT22;13779;-33.886;151.198;2024-03-07T03:58:53;25.90;99.90
25991;DHT22;13779;-33.886;151.198;2024-03-07T04:01:23;25.90;99.90
25991;DHT22;13779;-33.886;151.198;2024-03-07T04:03:52;26.00;99.90
25991;DHT22;13779;-33.886;151.198;2024-03-07T04:06:24;26.00;99.90
25991;DHT22;13779;-33.886;151.198;2024-03-07T04:08:53;26.00;99.90
25991;DHT22;13779;-33.886;151.198;2024-03-07T04:11:24;26.00;99.90
25991;DHT22;13779;-33.886;151.198;2024-03-07T04:13:55;26.00;99.90
25991;DHT22;13779;-33.886;151.198;2024-03-07T04:16:25;26.00;99.90
25991;DHT22;13779;-33.886;151.198;2024-03-07T04:18:55;25.80;99.90
25991;DHT22;13779;-33.886;151.198;2024-03-07T04:21:25;25.90;99.90
25991;DHT22;13779;-33.886;151.198;2024-03-07T04:23:55;25.80;99.90
25991;DHT22;13779;-33.886;151.198;2024-03-07T04:26:25;25.80;99.90
25991;DHT22;13779;-33.886;151.198;2024-03-07T04:28:55;25.90;99.90
25991;DHT22;13779;-33.886;151.198;2024-03-07T04:31:25;25.80;99.90
25991;DHT22;13779;-33.886;151.198;2024-03-07T04:33:55;25.70;99.90
25991;DHT22;13779;-33.886;151.198;2024-03-07T04:36:24;25.70;99.90
25991;DHT22;13779;-33.886;151.198;2024-03-07T04:38:54;25.80;99.90
25991;DHT22;13779;-33.886;151.198;2024-03-07T04:41:24;25.80;99.90
25991;DHT22;13779;-33.886;151.198;2024-03-07T04:43:53;25.90;99.90
25991;DHT22;13779;-33.886;151.198;2024-03-07T04:46:23;25.70;99.90
25991;DHT22;13779;-33.886;151.198;2024-03-07T04:48:53;25.60;99.90
25991;DHT22;13779;-33.886;151.198;2024-03-07T04:51:23;25.60;99.90
25991;DHT22;13779;-33.886;151.198;2024-03-07T04:53:52;25.60;99.90
25991;DHT22;13779;-33.886;151.198;2024-03-07T04:56:23;25.50;99.90
25991;DHT22;13779;-33.886;151.198;2024-03-07T04:58:53;25.50;99.90
25991;DHT22;13779;-33.886;151.198;2024-03-07T05:01:22;25.60;99.90
25991;DHT22;13779;-33.886;151.198;2024-03-07T05:03:52;25.60;99.90
25991;DHT22;13779;-33.886;151.198;2024-03-07T05:06:22;25.50;99.90
25991;DHT22;13779;-33.886;151.198;2024-03-07T05:08:51;25.50;99.90
25991;DHT22;13779;-33.886;151.198;2024-03-07T05:11:21;25.60;99.90
25991;DHT22;13779;-33.886;151.198;2024-03-07T05:13:51;25.50;99.90
25991;DHT22;13779;-33.886;151.198;2024-03-07T05:16:21;25.50;99.90
25991;DHT22;13779;-33.886;151.198;2024-03-07T05:18:51;25.60;99.90
25991;DHT22;13779;-33.886;151.198;2024-03-07T05:21:21;25.60;99.90
25991;DHT22;13779;-33.886;151.198;2024-03-07T05:24:03;25.60;99.90
25991;DHT22;13779;-33.886;151.198;2024-03-07T05:26:33;25.50;99.90
25991;DHT22;13779;-33.886;151.198;2024-03-07T05:29:04;25.50;99.90
25991;DHT22;13779;-33.886;151.198;2024-03-07T05:31:37;25.50;99.90
25991;DHT22;13779;-33.886;151.198;2024-03-07T05:34:07;25.50;99.90
25991;DHT22;13779;-33.886;151.198;2024-03-07T05:36:37;25.50;99.90
25991;DHT22;13779;-33.886;151.198;2024-03-07T05:39:16;25.50;99.90
25991;DHT22;13779;-33.886;151.198;2024-03-07T05:41:46;25.40;99.90
25991;DHT22;13779;-33.886;151.198;2024-03-07T05:44:17;25.40;99.90
25991;DHT22;13779;-33.886;151.198;2024-03-07T05:46:48;25.30;99.90
25991;DHT22;13779;-33.886;151.198;2024-03-07T05:49:20;25.30;99.90
25991;DHT22;13779;-33.886;151.198;2024-03-07T05:51:50;25.30;99.90
25991;DHT22;13779;-33.886;151.198;2024-03-07T05:54:35;25.30;99.90
25991;DHT22;13779;-33.886;151.198;2024-03-07T05:57:05;25.20;99.90
25991;DHT22;13779;-33.886;151.198;2024-03-07T05:59:35;25.20;99.90
25991;DHT22;13779;-33.886;151.198;2024-03-07T06:02:06;25.30;99.90
25991;DHT22;13779;-33.886;151.198;2024-03-07T06:04:36;25.30;99.90
25991;DHT22;13779;-33.886;151.198;2024-03-07T06:07:06;25.40;99.90
25991;DHT22;13779;-33.886;151.198;2024-03-07T06:09:36;25.40;99.90
25991;DHT22;13779;-33.886;151.198;2024-03-07T06:12:06;25.50;99.90
25991;DHT22;13779;-33.886;151.198;2024-03-07T06:14:42;25.50;99.90
25991;DHT22;13779;-33.886;151.198;2024-03-07T06:17:12;25.50;99.90
25991;DHT22;13779;-33.886;151.198;2024-03-07T06:19:41;25.50;99.90
25991;DHT22;13779;-33.886;151.198;2024-03-07T06:22:11;25.40;99.90
25991;DHT22;13779;-33.886;151.198;2024-03-07T06:24:41;25.30;99.90
25991;DHT22;13779;-33.886;151.198;2024-03-07T06:27:11;25.20;99.90
25991;DHT22;13779;-33.886;151.198;2024-03-07T06:30:01;25.20;99.90
25991;DHT22;13779;-33.886;151.198;2024-03-07T06:32:31;25.10;99.90
25991;DHT22;13779;-33.886;151.198;2024-03-07T06:35:01;25.10;99.90
25991;DHT22;13779;-33.886;151.198;2024-03-07T06:37:30;25.10;99.90
25991;DHT22;13779;-33.886;151.198;2024-03-07T06:40:00;25.00;99.90
25991;DHT22;13779;-33.886;151.198;2024-03-07T06:42:34;25.00;99.90
25991;DHT22;13779;-33.886;151.198;2024-03-07T06:45:04;25.00;99.90
25991;DHT22;13779;-33.886;151.198;2024-03-07T06:47:35;24.90;99.90
25991;DHT22;13779;-33.886;151.198;2024-03-07T06:50:06;24.90;99.90
25991;DHT22;13779;-33.886;151.198;2024-03-07T06:52:43;24.90;99.90
25991;DHT22;13779;-33.886;151.198;2024-03-07T06:55:16;24.80;99.90
25991;DHT22;13779;-33.886;151.198;2024-03-07T06:57:46;24.80;99.90
25991;DHT22;13779;-33.886;151.198;2024-03-07T07:00:15;24.80;99.90
25991;DHT22;13779;-33.886;151.198;2024-03-07T07:02:48;24.90;99.90
25991;DHT22;13779;-33.886;151.198;2024-03-07T07:05:19;24.90;99.90
25991;DHT22;13779;-33.886;151.198;2024-03-07T07:07:49;24.90;99.90
25991;DHT22;13779;-33.886;151.198;2024-03-07T07:10:19;24.80;99.90
25991;DHT22;13779;-33.886;151.198;2024-03-07T07:12:57;24.80;99.90
25991;DHT22;13779;-33.886;151.198;2024-03-07T07:15:26;24.80;99.90
25991;DHT22;13779;-33.886;151.198;2024-03-07T07:17:56;24.80;99.90
25991;DHT22;13779;-33.886;151.198;2024-03-07T07:20:25;24.70;99.90
25991;DHT22;13779;-33.886;151.198;2024-03-07T07:22:56;24.70;99.90
25991;DHT22;13779;-33.886;151.198;2024-03-07T07:25:28;24.70;99.90
25991;DHT22;13779;-33.886;151.198;2024-03-07T07:27:57;24.80;99.90
25991;DHT22;13779;-33.886;151.198;2024-03-07T07:30:27;24.70;99.90
25991;DHT22;13779;-33.886;151.198;2024-03-07T07:32:56;24.70;99.90
25991;DHT22;13779;-33.886;151.198;2024-03-07T07:35:26;24.70;99.90
25991;DHT22;13779;-33.886;151.198;2024-03-07T07:37:56;24.70;99.90
25991;DHT22;13779;-33.886;151.198;2024-03-07T07:40:26;24.60;99.90
25991;DHT22;13779;-33.886;151.198;2024-03-07T07:42:56;24.60;99.90
25991;DHT22;13779;-33.886;151.198;2024-03-07T07:45:27;24.60;99.90
25991;DHT22;13779;-33.886;151.198;2024-03-07T07:47:56;24.50;99.90
25991;DHT22;13779;-33.886;151.198;2024-03-07T07:50:27;24.50;99.90
25991;DHT22;13779;-33.886;151.198;2024-03-07T07:52:57;24.50;99.90
25991;DHT22;13779;-33.886;151.198;2024-03-07T07:55:27;24.50;99.90
25991;DHT22;13779;-33.886;151.198;2024-03-07T07:57:58;24.40;99.90
25991;DHT22;13779;-33.886;151.198;2024-03-07T08:00:28;24.40;99.90
25991;DHT22;13779;-33.886;151.198;2024-03-07T08:03:01;24.30;99.90
25991;DHT22;13779;-33.886;151.198;2024-03-07T08:05:35;24.30;99.90
25991;DHT22;13779;-33.886;151.198;2024-03-07T08:08:08;24.30;99.90
25991;DHT22;13779;-33.886;151.198;2024-03-07T08:10:40;24.30;99.90
25991;DHT22;13779;-33.886;151.198;2024-03-07T08:13:14;24.30;99.90
25991;DHT22;13779;-33.886;151.198;2024-03-07T08:15:44;24.30;99.90
25991;DHT22;13779;-33.886;151.198;2024-03-07T08:18:14;24.40;99.90
25991;DHT22;13779;-33.886;151.198;2024-03-07T08:20:44;24.30;99.90
25991;DHT22;13779;-33.886;151.198;2024-03-07T08:23:13;24.40;99.90
25991;DHT22;13779;-33.886;151.198;2024-03-07T08:25:43;24.30;99.90
25991;DHT22;13779;-33.886;151.198;2024-03-07T08:28:12;24.30;99.90
25991;DHT22;13779;-33.886;151.198;2024-03-07T08:30:42;24.30;99.90
25991;DHT22;13779;-33.886;151.198;2024-03-07T08:33:13;24.30;99.90
25991;DHT22;13779;-33.886;151.198;2024-03-07T08:35:44;24.40;99.90
25991;DHT22;13779;-33.886;151.198;2024-03-07T08:38:13;24.30;99.90
25991;DHT22;13779;-33.886;151.198;2024-03-07T08:40:43;24.40;99.90
25991;DHT22;13779;-33.886;151.198;2024-03-07T08:43:13;24.40;99.90
25991;DHT22;13779;-33.886;151.198;2024-03-07T08:45:43;24.40;99.90
25991;DHT22;13779;-33.886;151.198;2024-03-07T08:48:12;24.40;99.90
25991;DHT22;13779;-33.886;151.198;2024-03-07T08:50:43;24.30;99.90
25991;DHT22;13779;-33.886;151.198;2024-03-07T08:53:13;24.40;99.90
25991;DHT22;13779;-33.886;151.198;2024-03-07T08:55:43;24.40;99.90
25991;DHT22;13779;-33.886;151.198;2024-03-07T08:58:12;24.40;99.90
25991;DHT22;13779;-33.886;151.198;2024-03-07T09:00:42;24.40;99.90
25991;DHT22;13779;-33.886;151.198;2024-03-07T09:03:14;24.40;99.90
25991;DHT22;13779;-33.886;151.198;2024-03-07T09:05:44;24.40;99.90
25991;DHT22;13779;-33.886;151.198;2024-03-07T09:08:13;24.40;99.90
25991;DHT22;13779;-33.886;151.198;2024-03-07T09:10:43;24.40;99.90
25991;DHT22;13779;-33.886;151.198;2024-03-07T09:13:13;24.40;99.90
25991;DHT22;13779;-33.886;151.198;2024-03-07T09:15:42;24.40;99.90
25991;DHT22;13779;-33.886;151.198;2024-03-07T09:18:12;24.50;99.90
25991;DHT22;13779;-33.886;151.198;2024-03-07T09:20:42;24.40;99.90
25991;DHT22;13779;-33.886;151.198;2024-03-07T09:23:12;24.40;99.90
25991;DHT22;13779;-33.886;151.198;2024-03-07T09:25:41;24.50;99.90
25991;DHT22;13779;-33.886;151.198;2024-03-07T09:28:11;24.50;99.90
25991;DHT22;13779;-33.886;151.198;2024-03-07T09:30:41;24.50;99.90
25991;DHT22;13779;-33.886;151.198;2024-03-07T09:33:11;24.40;99.90
25991;DHT22;13779;-33.886;151.198;2024-03-07T09:35:40;24.40;99.90
25991;DHT22;13779;-33.886;151.198;2024-03-07T09:38:10;24.40;99.90
25991;DHT22;13779;-33.886;151.198;2024-03-07T09:40:40;24.40;99.90
25991;DHT22;13779;-33.886;151.198;2024-03-07T09:43:09;24.40;99.90
25991;DHT22;13779;-33.886;151.198;2024-03-07T09:45:42;24.40;99.90
25991;DHT22;13779;-33.886;151.198;2024-03-07T09:48:14;24.40;99.90
25991;DHT22;13779;-33.886;151.198;2024-03-07T09:50:46;24.50;99.90
25991;DHT22;13779;-33.886;151.198;2024-03-07T09:53:20;24.50;99.90
25991;DHT22;13779;-33.886;151.198;2024-03-07T09:55:52;24.60;99.90
25991;DHT22;13779;-33.886;151.198;2024-03-07T09:58:21;24.60;99.90
25991;DHT22;13779;-33.886;151.198;2024-03-07T10:00:51;24.70;99.90
25991;DHT22;13779;-33.886;151.198;2024-03-07T10:03:22;24.70;99.90
25991;DHT22;13779;-33.886;151.198;2024-03-07T10:05:55;24.70;99.90
25991;DHT22;13779;-33.886;151.198;2024-03-07T10:08:24;24.70;99.90
25991;DHT22;13779;-33.886;151.198;2024-03-07T10:10:55;24.80;99.90
25991;DHT22;13779;-33.886;151.198;2024-03-07T10:13:25;24.70;99.90
25991;DHT22;13779;-33.886;151.198;2024-03-07T10:15:56;24.80;99.90
25991;DHT22;13779;-33.886;151.198;2024-03-07T10:18:29;24.80;99.90
25991;DHT22;13779;-33.886;151.198;2024-03-07T10:20:59;24.80;99.90
25991;DHT22;13779;-33.886;151.198;2024-03-07T10:23:30;24.80;99.90
25991;DHT22;13779;-33.886;151.198;2024-03-07T10:26:04;24.70;99.90
25991;DHT22;13779;-33.886;151.198;2024-03-07T10:28:34;24.70;99.90
25991;DHT22;13779;-33.886;151.198;2024-03-07T10:31:03;24.70;99.90
25991;DHT22;13779;-33.886;151.198;2024-03-07T10:33:40;24.80;99.90
25991;DHT22;13779;-33.886;151.198;2024-03-07T10:36:10;24.70;99.90
25991;DHT22;13779;-33.886;151.198;2024-03-07T10:38:42;24.80;99.90
25991;DHT22;13779;-33.886;151.198;2024-03-07T10:41:12;24.80;99.90
25991;DHT22;13779;-33.886;151.198;2024-03-07T10:43:44;24.80;99.90
25991;DHT22;13779;-33.886;151.198;2024-03-07T10:46:16;24.70;99.90
25991;DHT22;13779;-33.886;151.198;2024-03-07T10:48:48;24.70;99.90
25991;DHT22;13779;-33.886;151.198;2024-03-07T10:54:43;24.70;99.90
25991;DHT22;13779;-33.886;151.198;2024-03-07T10:59:57;24.70;99.90
25991;DHT22;13779;-33.886;151.198;2024-03-07T11:02:37;24.70;99.90
25991;DHT22;13779;-33.886;151.198;2024-03-07T11:05:10;24.70;99.90
25991;DHT22;13779;-33.886;151.198;2024-03-07T11:07:41;24.70;99.90
25991;DHT22;13779;-33.886;151.198;2024-03-07T11:10:11;24.70;99.90
25991;DHT22;13779;-33.886;151.198;2024-03-07T11:12:40;24.70;99.90
25991;DHT22;13779;-33.886;151.198;2024-03-07T11:15:12;24.70;99.90
25991;DHT22;13779;-33.886;151.198;2024-03-07T11:17:43;24.60;99.90
25991;DHT22;13779;-33.886;151.198;2024-03-07T11:20:34;24.60;99.90
25991;DHT22;13779;-33.886;151.198;2024-03-07T11:26:12;24.70;99.90
25991;DHT22;13779;-33.886;151.198;2024-03-07T11:28:42;24.70;99.90
25991;DHT22;13779;-33.886;151.198;2024-03-07T11:31:16;24.70;99.90
25991;DHT22;13779;-33.886;151.198;2024-03-07T11:36:43;24.70;99.90
25991;DHT22;13779;-33.886;151.198;2024-03-07T11:42:05;24.60;99.90
25991;DHT22;13779;-33.886;151.198;2024-03-07T11:44:35;24.50;99.90
25991;DHT22;13779;-33.886;151.198;2024-03-07T11:47:09;24.50;99.90
25991;DHT22;13779;-33.886;151.198;2024-03-07T11:49:39;24.50;99.90
25991;DHT22;13779;-33.886;151.198;2024-03-07T11:52:09;24.50;99.90
25991;DHT22;13779;-33.886;151.198;2024-03-07T11:54:42;24.50;99.90
25991;DHT22;13779;-33.886;151.198;2024-03-07T11:57:21;24.50;99.90
25991;DHT22;13779;-33.886;151.198;2024-03-07T12:00:01;24.50;99.90
25991;DHT22;13779;-33.886;151.198;2024-03-07T12:02:37;24.50;99.90
25991;DHT22;13779;-33.886;151.198;2024-03-07T12:05:07;24.50;99.90
25991;DHT22;13779;-33.886;151.198;2024-03-07T12:07:37;24.50;99.90
25991;DHT22;13779;-33.886;151.198;2024-03-07T12:10:07;24.50;99.90
25991;DHT22;13779;-33.886;151.198;2024-03-07T12:12:36;24.50;99.90
25991;DHT22;13779;-33.886;151.198;2024-03-07T12:15:09;24.50;99.90
25991;DHT22;13779;-33.886;151.198;2024-03-07T12:17:48;24.50;99.90
25991;DHT22;13779;-33.886;151.198;2024-03-07T12:20:18;24.50;99.90
25991;DHT22;13779;-33.886;151.198;2024-03-07T12:23:01;24.50;99.90
25991;DHT22;13779;-33.886;151.198;2024-03-07T12:25:31;24.50;99.90
25991;DHT22;13779;-33.886;151.198;2024-03-07T12:28:11;24.60;99.90
25991;DHT22;13779;-33.886;151.198;2024-03-07T12:30:48;24.60;99.90
25991;DHT22;13779;-33.886;151.198;2024-03-07T12:33:21;24.60;99.90
25991;DHT22;13779;-33.886;151.198;2024-03-07T12:35:54;24.60;99.90
25991;DHT22;13779;-33.886;151.198;2024-03-07T12:38:36;24.50;99.90
25991;DHT22;13779;-33.886;151.198;2024-03-07T12:41:06;24.50;99.90
25991;DHT22;13779;-33.886;151.198;2024-03-07T12:43:37;24.40;99.90
25991;DHT22;13779;-33.886;151.198;2024-03-07T12:46:07;24.30;99.90
25991;DHT22;13779;-33.886;151.198;2024-03-07T12:48:37;24.30;99.90
25991;DHT22;13779;-33.886;151.198;2024-03-07T12:51:08;24.30;99.90
25991;DHT22;13779;-33.886;151.198;2024-03-07T12:53:38;24.20;99.90
25991;DHT22;13779;-33.886;151.198;2024-03-07T12:56:08;24.20;99.90
25991;DHT22;13779;-33.886;151.198;2024-03-07T12:58:38;24.10;99.90
25991;DHT22;13779;-33.886;151.198;2024-03-07T13:01:10;24.10;99.90
25991;DHT22;13779;-33.886;151.198;2024-03-07T13:03:40;24.10;99.90
25991;DHT22;13779;-33.886;151.198;2024-03-07T13:06:13;24.10;99.90
25991;DHT22;13779;-33.886;151.198;2024-03-07T13:08:42;24.00;99.90
25991;DHT22;13779;-33.886;151.198;2024-03-07T13:11:12;24.10;99.90
25991;DHT22;13779;-33.886;151.198;2024-03-07T13:13:42;24.00;99.90
25991;DHT22;13779;-33.886;151.198;2024-03-07T13:16:12;23.90;99.90
25991;DHT22;13779;-33.886;151.198;2024-03-07T13:18:42;23.90;99.90
25991;DHT22;13779;-33.886;151.198;2024-03-07T13:21:12;23.90;99.90
25991;DHT22;13779;-33.886;151.198;2024-03-07T13:23:46;23.90;99.90
25991;DHT22;13779;-33.886;151.198;2024-03-07T13:26:17;23.90;99.90
25991;DHT22;13779;-33.886;151.198;2024-03-07T13:28:53;23.90;99.90
25991;DHT22;13779;-33.886;151.198;2024-03-07T13:31:23;23.90;99.90
25991;DHT22;13779;-33.886;151.198;2024-03-07T13:33:55;23.80;99.90
25991;DHT22;13779;-33.886;151.198;2024-03-07T13:36:25;23.90;99.90
25991;DHT22;13779;-33.886;151.198;2024-03-07T13:38:54;23.90;99.90
25991;DHT22;13779;-33.886;151.198;2024-03-07T13:41:26;23.90;99.90
25991;DHT22;13779;-33.886;151.198;2024-03-07T13:43:57;23.90;99.90
25991;DHT22;13779;-33.886;151.198;2024-03-07T13:46:28;23.90;99.90
25991;DHT22;13779;-33.886;151.198;2024-03-07T13:49:00;23.80;99.90
25991;DHT22;13779;-33.886;151.198;2024-03-07T13:51:41;23.80;99.90
25991;DHT22;13779;-33.886;151.198;2024-03-07T13:54:22;23.80;99.90
25991;DHT22;13779;-33.886;151.198;2024-03-07T14:26:46;23.70;99.90
25991;DHT22;13779;-33.886;151.198;2024-03-07T14:29:26;23.70;99.90
25991;DHT22;13779;-33.886;151.198;2024-03-07T14:31:59;23.70;99.90
25991;DHT22;13779;-33.886;151.198;2024-03-07T14:37:19;23.60;99.90
25991;DHT22;13779;-33.886;151.198;2024-03-07T14:39:52;23.60;99.90
25991;DHT22;13779;-33.886;151.198;2024-03-07T14:42:24;23.60;99.90
25991;DHT22;13779;-33.886;151.198;2024-03-07T14:44:54;23.60;99.90
25991;DHT22;13779;-33.886;151.198;2024-03-07T14:47:24;23.60;99.90
25991;DHT22;13779;-33.886;151.198;2024-03-07T14:49:55;23.70;99.90
25991;DHT22;13779;-33.886;151.198;2024-03-07T14:52:26;23.60;99.90
25991;DHT22;13779;-33.886;151.198;2024-03-07T14:54:56;23.60;99.90
25991;DHT22;13779;-33.886;151.198;2024-03-07T14:57:25;23.60;99.90
25991;DHT22;13779;-33.886;151.198;2024-03-07T14:59:55;23.60;99.90
25991;DHT22;13779;-33.886;151.198;2024-03-07T15:02:26;23.50;99.90
25991;DHT22;13779;-33.886;151.198;2024-03-07T15:04:56;23.50;99.90
25991;DHT22;13779;-33.886;151.198;2024-03-07T15:07:26;23.50;99.90
25991;DHT22;13779;-33.886;151.198;2024-03-07T15:09:55;23.50;99.90
25991;DHT22;13779;-33.886;151.198;2024-03-07T15:12:27;23.50;99.90
25991;DHT22;13779;-33.886;151.198;2024-03-07T15:14:56;23.40;99.90
25991;DHT22;13779;-33.886;151.198;2024-03-07T15:17:30;23.50;99.90
25991;DHT22;13779;-33.886;151.198;2024-03-07T15:20:00;23.50;99.90
25991;DHT22;13779;-33.886;151.198;2024-03-07T15:22:29;23.40;99.90
25991;DHT22;13779;-33.886;151.198;2024-03-07T15:25:00;23.30;99.90
25991;DHT22;13779;-33.886;151.198;2024-03-07T15:27:31;23.30;99.90
25991;DHT22;13779;-33.886;151.198;2024-03-07T15:30:01;23.20;99.90
25991;DHT22;13779;-33.886;151.198;2024-03-07T15:32:31;23.20;99.90
25991;DHT22;13779;-33.886;151.198;2024-03-07T15:35:01;23.20;99.90
25991;DHT22;13779;-33.886;151.198;2024-03-07T15:37:39;23.10;99.90
25991;DHT22;13779;-33.886;151.198;2024-03-07T15:40:10;23.10;99.90
25991;DHT22;13779;-33.886;151.198;2024-03-07T15:42:46;23.10;99.90
25991;DHT22;13779;-33.886;151.198;2024-03-07T15:45:21;23.10;99.90
25991;DHT22;13779;-33.886;151.198;2024-03-07T15:47:51;23.10;99.90
25991;DHT22;13779;-33.886;151.198;2024-03-07T15:50:21;23.10;99.90
25991;DHT22;13779;-33.886;151.198;2024-03-07T15:52:51;23.10;99.90
25991;DHT22;13779;-33.886;151.198;2024-03-07T15:55:22;23.10;99.90
25991;DHT22;13779;-33.886;151.198;2024-03-07T15:57:55;23.10;99.90